Penntown, Indiana
Current Conditions -  °F | °C
As of 9:35 AM on Thursday 27 Nov 2014 (Local Time) from KI67 Reporting Station
Broken Clouds Broken Clouds  
Wind Chill: 26°   Ceiling: 2100
Heat Index: 32°   Visibility: 10mi
Dew Point: 23°   Wind: 7mph
Humidity: 69%   Direction: 330°NNW
Pressure: 30.27"   Gusts: 18mph
Location:  39.2635°N, 85.1027°W
Report Text: KI67 271435Z AUTO 33006G16KT 290V350 10SM BKN021 00/M05 A3027 RMK AO1
Loading
Personal Weather Stations






























Interactive Weather Map New forecast layout! Learn more

10-Day Weather Forecast

Advertisements
Track Severe Weather on mobile